Time;durP1;ratioP1;P1;durP2;ratioP2;P2;SDS_P1;SDS_P2;PMS_P1;PMS_P2;Temp;Humidity;BMP_temperature;BMP_pressure;BME280_temperature;BME280_humidity;BME280_pressure;Samples;Min_cycle;Max_cycle;Signal;HPM_P1;HPM_P2
2022/12/29 00:00:05;;;;;;;3.85;1.85;;;;;;;;;;4888270;29;20082;-79
2022/12/29 00:02:32;;;;;;;3.13;1.90;;;;;;;;;;4889014;29;20127;-80
2022/12/29 00:04:59;;;;;;;3.03;1.70;;;;;;;;;;4920649;29;20397;-79
2022/12/29 00:07:25;;;;;;;4.35;2.30;;;;;;;;;;4920034;29;20063;-79
2022/12/29 00:09:52;;;;;;;2.58;1.95;;;;;;;;;;4903371;29;20136;-79
2022/12/29 00:12:19;;;;;;;2.60;1.90;;;;;;;;;;4919009;29;20056;-79
2022/12/29 00:17:31;;;;;;;2.97;2.17;;;;;;;;;;4936292;29;20052;-79
2022/12/29 00:36:33;;;;;;;2.47;1.42;;;;;;;;;;4935170;29;20055;-79
2022/12/29 00:44:34;;;;;;;2.05;1.20;;;;;;;;;;4919542;29;20055;-80
2022/12/29 00:47:02;;;;;;;3.63;1.35;;;;;;;;;;4899411;29;20078;-79
2022/12/29 00:49:30;;;;;;;2.80;1.25;;;;;;;;;;4918775;29;20055;-79
2022/12/29 00:51:59;;;;;;;2.42;2.08;;;;;;;;;;4902886;29;20059;-79
2022/12/29 00:54:28;;;;;;;1.80;1.33;;;;;;;;;;4903104;29;20496;-79
2022/12/29 00:56:55;;;;;;;3.08;1.50;;;;;;;;;;4887338;29;20134;-79
2022/12/29 00:59:23;;;;;;;4.22;1.40;;;;;;;;;;4918152;29;20159;-79
2022/12/29 01:01:51;;;;;;;3.22;1.35;;;;;;;;;;4905709;29;20099;-80
2022/12/29 01:04:20;;;;;;;2.20;1.42;;;;;;;;;;4930091;29;20078;-79
2022/12/29 01:06:47;;;;;;;1.42;1.05;;;;;;;;;;4902427;29;20055;-79
2022/12/29 01:11:59;;;;;;;2.88;1.27;;;;;;;;;;4935048;29;20063;-79
2022/12/29 01:14:26;;;;;;;1.90;1.40;;;;;;;;;;4902771;29;20456;-80
2022/12/29 01:16:54;;;;;;;2.17;1.25;;;;;;;;;;4903225;29;20086;-79
2022/12/29 01:19:21;;;;;;;3.80;1.50;;;;;;;;;;4917957;29;20058;-79
2022/12/29 01:21:48;;;;;;;1.85;1.10;;;;;;;;;;4902483;29;20056;-79
2022/12/29 01:24:16;;;;;;;4.15;1.40;;;;;;;;;;4902342;29;20055;-79
2022/12/29 01:26:43;;;;;;;3.13;1.83;;;;;;;;;;4887181;29;20059;-80
2022/12/29 01:29:10;;;;;;;2.10;1.38;;;;;;;;;;4900602;29;20138;-80
2022/12/29 01:31:37;;;;;;;3.15;2.13;;;;;;;;;;4902255;29;20052;-79
2022/12/29 01:34:04;;;;;;;1.58;1.15;;;;;;;;;;4902096;29;20083;-79
2022/12/29 01:36:31;;;;;;;2.50;1.13;;;;;;;;;;4886897;29;20070;-79
2022/12/29 01:38:58;;;;;;;1.20;1.05;;;;;;;;;;4898513;29;20055;-79
2022/12/29 01:41:25;;;;;;;3.60;1.55;;;;;;;;;;4918237;29;20484;-79
2022/12/29 01:43:57;;;;;;;1.95;1.63;;;;;;;;;;4886829;29;20316;-79
2022/12/29 01:46:31;;;;;;;4.25;1.17;;;;;;;;;;4933562;29;20420;-79
2022/12/29 01:49:02;;;;;;;3.03;1.55;;;;;;;;;;4902021;29;20158;-79
2022/12/29 01:51:29;;;;;;;4.45;1.17;;;;;;;;;;4931802;29;20122;-79
2022/12/29 01:53:57;;;;;;;3.33;1.23;;;;;;;;;;4887056;29;20422;-79
2022/12/29 01:56:23;;;;;;;3.58;1.38;;;;;;;;;;4917693;29;20051;-79
2022/12/29 01:58:58;;;;;;;3.30;1.42;;;;;;;;;;4886772;29;20142;-79
2022/12/29 02:01:25;;;;;;;3.17;1.20;;;;;;;;;;4902434;29;20052;-79
2022/12/29 02:03:52;;;;;;;2.97;1.60;;;;;;;;;;4901798;29;20444;-79
2022/12/29 02:06:22;;;;;;;2.45;1.13;;;;;;;;;;4897966;29;20056;-79
2022/12/29 02:08:50;;;;;;;6.40;1.40;;;;;;;;;;4901169;29;20070;-79
2022/12/29 02:11:17;;;;;;;1.90;1.27;;;;;;;;;;4917286;29;20052;-79
2022/12/29 02:13:43;;;;;;;2.50;1.10;;;;;;;;;;4901988;29;20417;-79
2022/12/29 02:16:28;;;;;;;2.03;1.30;;;;;;;;;;4901452;29;20060;-79
2022/12/29 02:19:13;;;;;;;1.85;1.20;;;;;;;;;;4933371;29;20496;-79
2022/12/29 02:21:55;;;;;;;2.03;1.00;;;;;;;;;;4936709;29;20048;-80
2022/12/29 02:24:43;;;;;;;3.08;1.50;;;;;;;;;;4919845;29;20500;-80
2022/12/29 02:27:31;;;;;;;2.25;1.30;;;;;;;;;;4919150;29;20056;-79
2022/12/29 02:30:06;;;;;;;1.83;1.17;;;;;;;;;;4919382;29;20063;-79
2022/12/29 02:32:42;;;;;;;1.80;0.80;;;;;;;;;;4918400;29;20063;-80
2022/12/29 02:35:18;;;;;;;3.78;1.08;;;;;;;;;;4912001;29;20428;-79
2022/12/29 02:38:03;;;;;;;2.47;1.02;;;;;;;;;;4917907;29;20059;-80
2022/12/29 02:40:41;;;;;;;3.08;1.10;;;;;;;;;;4919762;29;20059;-80
2022/12/29 02:43:13;;;;;;;2.08;1.00;;;;;;;;;;4934693;29;20055;-80
2022/12/29 02:45:46;;;;;;;2.88;1.10;;;;;;;;;;4922600;29;20059;-81
2022/12/29 02:48:27;;;;;;;1.10;1.00;;;;;;;;;;4906081;29;20065;-81
2022/12/29 02:51:21;;;;;;;1.95;1.35;;;;;;;;;;4906398;29;20064;-81
2022/12/29 02:56:33;;;;;;;3.05;1.30;;;;;;;;;;4910990;29;20051;-80
2022/12/29 02:59:00;;;;;;;1.42;1.15;;;;;;;;;;4905900;29;20051;-80
2022/12/29 03:01:36;;;;;;;2.90;1.45;;;;;;;;;;4891251;29;20540;-81
2022/12/29 03:04:26;;;;;;;1.92;1.35;;;;;;;;;;4907171;29;20111;-81
2022/12/29 03:07:00;;;;;;;3.40;1.02;;;;;;;;;;4902625;29;20481;-82
2022/12/29 03:10:01;;;;;;;1.50;1.10;;;;;;;;;;4919942;29;20048;-81
2022/12/29 03:18:19;;;;;;;1.52;1.10;;;;;;;;;;4920182;29;20051;-81
2022/12/29 03:21:14;;;;;;;5.80;1.30;;;;;;;;;;4917975;29;20070;-81
2022/12/29 03:23:47;;;;;;;1.27;0.90;;;;;;;;;;4893999;29;20047;-81
2022/12/29 03:26:14;;;;;;;2.53;1.05;;;;;;;;;;4887632;29;20048;-80
2022/12/29 03:28:52;;;;;;;2.95;0.95;;;;;;;;;;4886597;29;20051;-81
2022/12/29 03:31:20;;;;;;;1.83;1.00;;;;;;;;;;4885765;29;20055;-80
2022/12/29 03:33:46;;;;;;;2.40;1.00;;;;;;;;;;4916473;29;20493;-80
2022/12/29 03:36:18;;;;;;;2.97;0.93;;;;;;;;;;4882781;29;20067;-81
2022/12/29 03:38:51;;;;;;;3.33;0.95;;;;;;;;;;4913463;29;20063;-80
2022/12/29 03:41:20;;;;;;;2.45;0.80;;;;;;;;;;4901595;29;20058;-80
2022/12/29 03:43:47;;;;;;;2.22;0.80;;;;;;;;;;4899394;29;20413;-81
2022/12/29 03:46:14;;;;;;;2.00;0.75;;;;;;;;;;4915936;29;20055;-80
2022/12/29 03:48:40;;;;;;;5.65;1.08;;;;;;;;;;4910559;29;20600;-80
2022/12/29 03:51:07;;;;;;;4.60;1.08;;;;;;;;;;4897199;29;20056;-80
2022/12/29 03:53:34;;;;;;;3.50;1.00;;;;;;;;;;4912474;29;20088;-78
2022/12/29 03:56:01;;;;;;;2.05;0.90;;;;;;;;;;4898467;29;20066;-77
2022/12/29 03:58:27;;;;;;;1.80;1.10;;;;;;;;;;4899906;29;20444;-78
2022/12/29 04:00:54;;;;;;;3.33;1.30;;;;;;;;;;4884566;29;20070;-78
2022/12/29 04:03:21;;;;;;;2.00;0.70;;;;;;;;;;4899063;29;20066;-78
2022/12/29 04:05:48;;;;;;;1.40;0.80;;;;;;;;;;4899288;29;20118;-78
2022/12/29 04:08:14;;;;;;;1.70;0.80;;;;;;;;;;4915604;29;20051;-78
2022/12/29 04:10:41;;;;;;;2.83;1.33;;;;;;;;;;4890039;29;20056;-81
2022/12/29 04:13:08;;;;;;;3.80;0.80;;;;;;;;;;4902633;29;20078;-81
2022/12/29 04:15:35;;;;;;;1.77;0.95;;;;;;;;;;4918090;29;20055;-81
2022/12/29 04:18:01;;;;;;;1.92;0.80;;;;;;;;;;4934280;29;20051;-81
2022/12/29 04:23:13;;;;;;;3.15;1.10;;;;;;;;;;4937807;29;20055;-82
2022/12/29 04:25:40;;;;;;;2.05;0.80;;;;;;;;;;4922099;29;20522;-81
2022/12/29 04:28:07;;;;;;;1.98;1.25;;;;;;;;;;4928918;29;20058;-81
2022/12/29 04:30:34;;;;;;;2.92;1.15;;;;;;;;;;4940918;29;20078;-82
2022/12/29 04:33:01;;;;;;;1.70;0.70;;;;;;;;;;4923007;29;20062;-79
2022/12/29 04:35:28;;;;;;;1.60;0.95;;;;;;;;;;4905174;29;20119;-80
2022/12/29 04:37:54;;;;;;;3.22;0.77;;;;;;;;;;4937656;29;20062;-80
2022/12/29 04:40:23;;;;;;;1.40;1.13;;;;;;;;;;4921429;29;20056;-80
2022/12/29 04:42:50;;;;;;;3.42;1.10;;;;;;;;;;4889973;29;20102;-80
2022/12/29 04:45:16;;;;;;;1.80;0.93;;;;;;;;;;4889142;29;20059;-81
2022/12/29 04:47:43;;;;;;;1.98;0.70;;;;;;;;;;4890537;29;20059;-81
2022/12/29 04:50:13;;;;;;;1.98;0.93;;;;;;;;;;4924534;29;20107;-81
2022/12/29 04:52:40;;;;;;;0.88;0.75;;;;;;;;;;4947357;29;20060;-80
2022/12/29 04:55:07;;;;;;;4.72;1.20;;;;;;;;;;4939563;29;20058;-80
2022/12/29 04:57:34;;;;;;;2.13;0.98;;;;;;;;;;4922964;29;20056;-80
2022/12/29 05:00:01;;;;;;;1.73;1.05;;;;;;;;;;4927741;29;20080;-80
2022/12/29 05:02:28;;;;;;;2.50;1.30;;;;;;;;;;4906933;29;20056;-80
2022/12/29 05:04:55;;;;;;;1.63;0.90;;;;;;;;;;4940910;29;20051;-82
2022/12/29 05:07:22;;;;;;;2.20;1.50;;;;;;;;;;4911504;29;20062;-82
2022/12/29 05:09:49;;;;;;;4.50;1.30;;;;;;;;;;4910326;29;20051;-80
2022/12/29 05:12:16;;;;;;;2.67;1.17;;;;;;;;;;4921944;29;20060;-80
2022/12/29 05:14:43;;;;;;;3.08;1.00;;;;;;;;;;4922576;29;20059;-80
2022/12/29 05:17:10;;;;;;;1.45;1.13;;;;;;;;;;4904926;29;20062;-80
2022/12/29 05:19:38;;;;;;;1.02;0.80;;;;;;;;;;4905804;29;20059;-80
2022/12/29 05:22:04;;;;;;;6.05;1.75;;;;;;;;;;4929408;29;20047;-80
2022/12/29 05:24:31;;;;;;;2.15;1.30;;;;;;;;;;4911992;29;20056;-80
2022/12/29 05:26:59;;;;;;;3.60;1.40;;;;;;;;;;4898601;29;20047;-79
2022/12/29 05:29:25;;;;;;;2.95;1.60;;;;;;;;;;4914215;29;20131;-80
2022/12/29 05:31:52;;;;;;;1.83;1.10;;;;;;;;;;4923742;29;20582;-78
2022/12/29 05:34:19;;;;;;;4.25;0.95;;;;;;;;;;4924909;29;20044;-78
2022/12/29 05:36:46;;;;;;;2.70;0.90;;;;;;;;;;4927780;29;20067;-77
2022/12/29 05:39:12;;;;;;;1.23;1.00;;;;;;;;;;4927070;29;20056;-77
2022/12/29 05:41:39;;;;;;;1.60;1.02;;;;;;;;;;4910689;28;20051;-77
2022/12/29 05:44:06;;;;;;;2.45;1.00;;;;;;;;;;4946780;29;20062;-77
2022/12/29 05:46:33;;;;;;;1.58;0.90;;;;;;;;;;4895069;29;20105;-77
2022/12/29 05:48:59;;;;;;;3.53;1.20;;;;;;;;;;4911581;29;20079;-77
2022/12/29 05:51:26;;;;;;;2.15;1.05;;;;;;;;;;4927290;29;20480;-77
2022/12/29 05:53:53;;;;;;;3.65;1.23;;;;;;;;;;4912097;29;20058;-77
2022/12/29 05:56:20;;;;;;;1.55;1.13;;;;;;;;;;4895164;29;20079;-76
2022/12/29 05:58:47;;;;;;;2.13;1.13;;;;;;;;;;4909241;29;20504;-76
2022/12/29 06:01:14;;;;;;;2.72;1.10;;;;;;;;;;4935505;29;20378;-77
2022/12/29 06:03:42;;;;;;;1.30;1.00;;;;;;;;;;4887178;29;20423;-77
2022/12/29 06:06:14;;;;;;;4.00;1.10;;;;;;;;;;4935417;29;20134;-77
2022/12/29 06:08:40;;;;;;;3.92;0.93;;;;;;;;;;4918011;29;20129;-78
2022/12/29 06:11:07;;;;;;;2.13;1.08;;;;;;;;;;4917173;29;20060;-78
2022/12/29 06:13:34;;;;;;;1.88;1.17;;;;;;;;;;4918046;29;20060;-78
2022/12/29 06:16:01;;;;;;;1.13;0.80;;;;;;;;;;4902317;29;20059;-77
2022/12/29 06:18:28;;;;;;;2.30;1.27;;;;;;;;;;4917332;29;20067;-76
2022/12/29 06:20:58;;;;;;;2.90;0.95;;;;;;;;;;4901094;29;20443;-76
2022/12/29 06:23:25;;;;;;;2.28;0.95;;;;;;;;;;4887101;29;20063;-76
2022/12/29 06:25:52;;;;;;;3.92;1.35;;;;;;;;;;4937519;29;20078;-76
2022/12/29 06:28:18;;;;;;;2.92;1.52;;;;;;;;;;4917199;29;20055;-77
2022/12/29 06:30:45;;;;;;;1.55;0.98;;;;;;;;;;4901203;29;20052;-76
2022/12/29 06:33:12;;;;;;;1.42;0.82;;;;;;;;;;4901681;29;20144;-77
2022/12/29 06:35:39;;;;;;;2.00;0.98;;;;;;;;;;4901316;29;20496;-76
2022/12/29 06:38:06;;;;;;;3.63;1.00;;;;;;;;;;4903541;29;20056;-77
2022/12/29 06:40:33;;;;;;;3.63;1.27;;;;;;;;;;4910009;29;20063;-78
2022/12/29 06:43:00;;;;;;;3.60;1.10;;;;;;;;;;4936099;29;20114;-78
2022/12/29 06:45:27;;;;;;;2.42;1.10;;;;;;;;;;4901750;29;20420;-78
2022/12/29 06:47:53;;;;;;;2.80;1.10;;;;;;;;;;4918859;29;20103;-78
2022/12/29 06:50:20;;;;;;;1.35;0.98;;;;;;;;;;4901473;29;20056;-77
2022/12/29 06:52:47;;;;;;;1.42;0.80;;;;;;;;;;4915451;29;20058;-76
2022/12/29 06:55:14;;;;;;;3.90;1.17;;;;;;;;;;4899599;29;20051;-76
2022/12/29 06:57:41;;;;;;;3.03;0.90;;;;;;;;;;4922930;29;20063;-78
2022/12/29 07:00:08;;;;;;;2.80;1.13;;;;;;;;;;4941882;29;20051;-77
2022/12/29 07:02:35;;;;;;;2.67;0.90;;;;;;;;;;4933323;29;20511;-77
2022/12/29 07:05:02;;;;;;;1.98;0.95;;;;;;;;;;4915542;29;20051;-77
2022/12/29 07:07:29;;;;;;;3.08;1.17;;;;;;;;;;4915551;29;20063;-76
2022/12/29 07:09:55;;;;;;;2.38;1.15;;;;;;;;;;4915125;29;20067;-76
2022/12/29 07:12:22;;;;;;;2.75;1.70;;;;;;;;;;4915460;29;20915;-76
2022/12/29 07:14:49;;;;;;;3.10;1.13;;;;;;;;;;4916576;29;20420;-76
2022/12/29 07:17:15;;;;;;;1.05;0.80;;;;;;;;;;4885579;29;20063;-75
2022/12/29 07:19:42;;;;;;;3.28;1.42;;;;;;;;;;4932195;29;20080;-75
2022/12/29 07:22:09;;;;;;;5.57;3.15;;;;;;;;;;4915222;29;20056;-75
2022/12/29 07:24:36;;;;;;;1.88;1.48;;;;;;;;;;4888550;29;20372;-77
2022/12/29 07:27:03;;;;;;;1.95;1.20;;;;;;;;;;4916272;29;20060;-77
2022/12/29 07:29:30;;;;;;;4.03;2.10;;;;;;;;;;4916022;29;20127;-77
2022/12/29 07:31:57;;;;;;;4.68;2.70;;;;;;;;;;4903051;29;20063;-77
2022/12/29 07:34:23;;;;;;;4.93;2.95;;;;;;;;;;4918954;29;20081;-77
2022/12/29 07:36:50;;;;;;;6.15;1.40;;;;;;;;;;4917477;29;20068;-76
2022/12/29 07:39:17;;;;;;;1.85;1.17;;;;;;;;;;4902880;29;20060;-77
2022/12/29 07:41:44;;;;;;;2.75;1.20;;;;;;;;;;4918786;29;20074;-77
2022/12/29 07:44:10;;;;;;;5.32;1.33;;;;;;;;;;4918173;29;20066;-77
2022/12/29 07:46:37;;;;;;;2.13;1.50;;;;;;;;;;4937176;29;20059;-77
2022/12/29 07:49:22;;;;;;;1.45;1.15;;;;;;;;;;4922445;29;20055;-75
2022/12/29 07:51:49;;;;;;;2.90;1.35;;;;;;;;;;4900627;29;20497;-75
2022/12/29 07:54:18;;;;;;;2.88;0.90;;;;;;;;;;4907090;29;20524;-76
2022/12/29 07:56:45;;;;;;;2.00;0.90;;;;;;;;;;4906618;29;20060;-77
2022/12/29 07:59:12;;;;;;;1.40;0.88;;;;;;;;;;4892055;29;20058;-85
2022/12/29 08:01:39;;;;;;;4.45;1.52;;;;;;;;;;4905739;29;20492;-78
2022/12/29 08:04:06;;;;;;;2.72;1.38;;;;;;;;;;4901043;29;20527;-75
2022/12/29 08:06:33;;;;;;;4.72;1.70;;;;;;;;;;4899818;29;20078;-76
2022/12/29 08:09:01;;;;;;;2.83;1.15;;;;;;;;;;4909049;29;20055;-76
2022/12/29 08:11:38;;;;;;;3.05;0.98;;;;;;;;;;4888539;29;20503;-76
2022/12/29 08:14:06;;;;;;;1.60;1.05;;;;;;;;;;4903334;29;20379;-76
2022/12/29 08:16:33;;;;;;;1.63;1.25;;;;;;;;;;4896219;29;20066;-76
2022/12/29 08:19:00;;;;;;;6.28;1.15;;;;;;;;;;4935632;29;20059;-77
2022/12/29 08:21:27;;;;;;;1.80;0.80;;;;;;;;;;4913244;29;20063;-77
2022/12/29 08:23:54;;;;;;;2.75;1.00;;;;;;;;;;4888419;29;20419;-78
2022/12/29 08:26:20;;;;;;;1.60;0.93;;;;;;;;;;4913426;29;20052;-77
2022/12/29 08:28:47;;;;;;;2.30;1.10;;;;;;;;;;4940604;29;20065;-78
2022/12/29 08:31:14;;;;;;;4.28;1.00;;;;;;;;;;4903639;29;20059;-78
2022/12/29 08:33:41;;;;;;;3.10;1.13;;;;;;;;;;4914671;29;20102;-76
2022/12/29 08:36:08;;;;;;;3.15;0.95;;;;;;;;;;4937627;29;20058;-77
2022/12/29 08:38:35;;;;;;;2.50;0.93;;;;;;;;;;4885198;29;20070;-81
2022/12/29 08:41:02;;;;;;;4.28;1.23;;;;;;;;;;4920124;29;20538;-79
2022/12/29 08:43:29;;;;;;;4.15;1.40;;;;;;;;;;4934931;29;20066;-78
2022/12/29 08:45:57;;;;;;;1.77;0.95;;;;;;;;;;4904900;29;20056;-78
2022/12/29 08:48:25;;;;;;;3.08;1.00;;;;;;;;;;4901490;29;20066;-76
2022/12/29 08:50:52;;;;;;;1.95;0.93;;;;;;;;;;4903723;29;20501;-80
2022/12/29 08:53:18;;;;;;;4.70;1.75;;;;;;;;;;4905216;29;20531;-77
2022/12/29 08:55:56;;;;;;;2.08;0.90;;;;;;;;;;4905511;29;20164;-76
2022/12/29 08:58:32;;;;;;;5.53;1.35;;;;;;;;;;4915325;29;20056;-77
2022/12/29 09:01:00;;;;;;;1.08;0.88;;;;;;;;;;4899752;29;20060;-78
2022/12/29 09:03:28;;;;;;;1.30;0.80;;;;;;;;;;4931049;29;20119;-78
2022/12/29 09:06:16;;;;;;;5.68;1.23;;;;;;;;;;4902718;29;20047;-77
2022/12/29 09:08:44;;;;;;;1.13;1.02;;;;;;;;;;4929910;29;20052;-78
2022/12/29 09:11:20;;;;;;;1.23;0.82;;;;;;;;;;4918951;29;20500;-78
2022/12/29 09:13:48;;;;;;;3.22;1.17;;;;;;;;;;4918841;29;20383;-76
2022/12/29 09:16:16;;;;;;;3.67;2.17;;;;;;;;;;4917066;29;20038;-77
2022/12/29 09:18:44;;;;;;;1.63;1.02;;;;;;;;;;4899979;29;20206;-76
2022/12/29 09:21:12;;;;;;;1.70;0.98;;;;;;;;;;4911744;29;20047;-77
2022/12/29 09:23:40;;;;;;;3.25;1.00;;;;;;;;;;4912780;29;20055;-77
2022/12/29 09:26:08;;;;;;;4.53;1.13;;;;;;;;;;4897120;29;20412;-77
2022/12/29 09:28:36;;;;;;;2.03;0.80;;;;;;;;;;4927384;29;20539;-77
2022/12/29 09:31:04;;;;;;;2.08;1.05;;;;;;;;;;4914540;29;20794;-77
2022/12/29 09:33:35;;;;;;;1.20;1.00;;;;;;;;;;4925116;29;20064;-77
2022/12/29 09:36:03;;;;;;;2.10;1.00;;;;;;;;;;4900926;29;20117;-77
2022/12/29 09:38:31;;;;;;;2.88;1.20;;;;;;;;;;4898763;29;20150;-77
2022/12/29 09:41:22;;;;;;;3.65;1.17;;;;;;;;;;4899122;29;20123;-76
2022/12/29 09:44:11;;;;;;;3.47;2.03;;;;;;;;;;4897062;29;20076;-77
2022/12/29 09:46:41;;;;;;;2.75;1.05;;;;;;;;;;4928444;29;20074;-74
2022/12/29 09:49:18;;;;;;;3.38;1.45;;;;;;;;;;4926581;29;20059;-76
2022/12/29 09:51:48;;;;;;;1.63;1.40;;;;;;;;;;4914535;29;20059;-76
2022/12/29 09:54:31;;;;;;;2.97;2.17;;;;;;;;;;4915119;29;20405;-77
2022/12/29 09:56:58;;;;;;;3.05;1.95;;;;;;;;;;4915873;29;20056;-77
2022/12/29 09:59:40;;;;;;;2.75;1.85;;;;;;;;;;4902120;29;20109;-77
2022/12/29 10:02:24;;;;;;;1.92;1.42;;;;;;;;;;4923077;29;20048;-77
2022/12/29 10:04:52;;;;;;;8.93;4.03;;;;;;;;;;4914376;29;20086;-76
2022/12/29 10:07:40;;;;;;;2.75;2.00;;;;;;;;;;4896428;29;20051;-76
2022/12/29 10:10:23;;;;;;;2.22;1.10;;;;;;;;;;4890266;29;20657;-76
2022/12/29 10:12:59;;;;;;;3.83;1.60;;;;;;;;;;4885196;29;20054;-76
2022/12/29 10:15:42;;;;;;;2.35;1.30;;;;;;;;;;4905088;29;20432;-77
2022/12/29 10:18:54;;;;;;;2.10;1.25;;;;;;;;;;4931434;29;20060;-77
2022/12/29 10:21:47;;;;;;;2.30;1.10;;;;;;;;;;4932647;29;20075;-79
2022/12/29 10:24:15;;;;;;;;;;;;;;;;;;4896039;29;20055;-79
2022/12/29 10:26:43;;;;;;;1.80;1.50;;;;;;;;;;4900466;29;19937;-76
2022/12/29 10:29:19;;;;;;;2.63;1.48;;;;;;;;;;4915307;29;20087;-76
2022/12/29 10:32:01;;;;;;;2.95;1.38;;;;;;;;;;4887850;29;20592;-76
2022/12/29 10:34:39;;;;;;;2.97;1.60;;;;;;;;;;4915472;29;20143;-77
2022/12/29 10:37:21;;;;;;;5.15;2.75;;;;;;;;;;4883422;29;20464;-77
2022/12/29 10:39:58;;;;;;;2.65;1.70;;;;;;;;;;4888188;29;20055;-77
2022/12/29 10:42:28;;;;;;;3.05;2.28;;;;;;;;;;4907722;29;20540;-76
2022/12/29 10:44:56;;;;;;;7.03;3.67;;;;;;;;;;4899844;29;20060;-77
2022/12/29 10:47:27;;;;;;;3.55;2.38;;;;;;;;;;4899649;29;20067;-76
2022/12/29 10:49:55;;;;;;;4.70;2.60;;;;;;;;;;4900378;29;20056;-76
2022/12/29 10:52:22;;;;;;;4.88;2.00;;;;;;;;;;4883923;29;20059;-76
2022/12/29 10:54:56;;;;;;;2.83;1.80;;;;;;;;;;4899875;29;20052;-76
2022/12/29 10:57:35;;;;;;;4.55;2.08;;;;;;;;;;4895263;29;20091;-77
2022/12/29 11:00:12;;;;;;;3.15;2.15;;;;;;;;;;4918696;29;20064;-75
2022/12/29 11:03:12;;;;;;;6.45;2.08;;;;;;;;;;4912142;29;20056;-75
2022/12/29 11:05:41;;;;;;;1.55;1.25;;;;;;;;;;4925587;29;20086;-76
2022/12/29 11:08:47;;;;;;;4.97;2.05;;;;;;;;;;4908325;29;20131;-77
2022/12/29 11:11:15;;;;;;;3.63;1.40;;;;;;;;;;4910727;29;20047;-77
2022/12/29 11:14:18;;;;;;;5.05;2.03;;;;;;;;;;4830252;29;20051;-77
2022/12/29 11:16:58;;;;;;;2.92;1.70;;;;;;;;;;4914371;29;20086;-79
2022/12/29 11:19:28;;;;;;;2.10;1.25;;;;;;;;;;4910068;29;20051;-75
2022/12/29 11:22:25;;;;;;;1.73;0.93;;;;;;;;;;4945762;28;20055;-78
2022/12/29 11:25:05;;;;;;;4.07;1.88;;;;;;;;;;4919277;29;20053;-78
2022/12/29 11:27:43;;;;;;;3.78;1.25;;;;;;;;;;4939057;29;20439;-78
2022/12/29 11:30:23;;;;;;;3.72;1.52;;;;;;;;;;4905273;29;20047;-77
2022/12/29 11:32:53;;;;;;;3.03;1.45;;;;;;;;;;4922885;29;20061;-78
2022/12/29 11:35:37;;;;;;;4.07;2.03;;;;;;;;;;4925088;29;20063;-77
2022/12/29 11:38:04;;;;;;;4.30;1.98;;;;;;;;;;4916475;29;20058;-77
2022/12/29 11:40:33;;;;;;;5.45;1.23;;;;;;;;;;4922295;29;20094;-77
2022/12/29 11:43:04;;;;;;;2.85;1.25;;;;;;;;;;4898357;29;20122;-77
2022/12/29 11:45:33;;;;;;;2.40;0.70;;;;;;;;;;4921418;29;20047;-76
2022/12/29 11:48:21;;;;;;;2.33;1.02;;;;;;;;;;4922581;29;20527;-75
2022/12/29 11:50:55;;;;;;;2.38;1.00;;;;;;;;;;4904580;29;20487;-75
2022/12/29 11:53:22;;;;;;;3.33;1.13;;;;;;;;;;4922343;29;20055;-77
2022/12/29 11:55:53;;;;;;;2.88;1.60;;;;;;;;;;4938837;29;20047;-77
2022/12/29 11:58:21;;;;;;;2.70;1.40;;;;;;;;;;4920884;29;20416;-75
2022/12/29 12:00:50;;;;;;;4.68;1.67;;;;;;;;;;4933633;29;20055;-75
2022/12/29 12:03:22;;;;;;;3.83;1.55;;;;;;;;;;4919931;29;20083;-75
2022/12/29 12:05:59;;;;;;;3.58;1.88;;;;;;;;;;4925890;29;20085;-76
2022/12/29 12:08:49;;;;;;;2.60;1.70;;;;;;;;;;4922285;29;20129;-76
2022/12/29 12:11:21;;;;;;;6.10;2.00;;;;;;;;;;4918961;29;20495;-75
2022/12/29 12:13:57;;;;;;;1.85;1.30;;;;;;;;;;4918904;29;20603;-75
2022/12/29 12:16:54;;;;;;;4.60;1.38;;;;;;;;;;4933365;29;20079;-75
2022/12/29 12:19:39;;;;;;;4.03;2.33;;;;;;;;;;4918981;28;20059;-75
2022/12/29 12:22:24;;;;;;;3.80;1.30;;;;;;;;;;4950223;28;20090;-75
2022/12/29 12:24:58;;;;;;;3.22;1.23;;;;;;;;;;4921139;28;20083;-75
2022/12/29 12:27:40;;;;;;;2.60;1.50;;;;;;;;;;4905221;29;20130;-77
2022/12/29 12:30:19;;;;;;;3.78;1.42;;;;;;;;;;4942831;29;20504;-76
2022/12/29 12:33:06;;;;;;;9.57;3.72;;;;;;;;;;4916153;28;20051;-76
2022/12/29 12:36:09;;;;;;;4.90;1.77;;;;;;;;;;4916965;28;20061;-75
2022/12/29 12:38:56;;;;;;;4.85;1.90;;;;;;;;;;4932600;29;20079;-75
2022/12/29 12:41:44;;;;;;;1.85;1.30;;;;;;;;;;4937128;29;20055;-75
2022/12/29 12:44:18;;;;;;;3.92;1.83;;;;;;;;;;4924210;29;20170;-77
2022/12/29 12:47:04;;;;;;;3.47;1.58;;;;;;;;;;4956558;28;20079;-76
2022/12/29 12:49:50;;;;;;;3.63;1.80;;;;;;;;;;4954374;29;20129;-76
2022/12/29 12:52:23;;;;;;;2.72;1.38;;;;;;;;;;4954631;28;20489;-75
2022/12/29 12:55:41;;;;;;;2.03;1.50;;;;;;;;;;4934883;29;20059;-75
2022/12/29 12:58:41;;;;;;;2.10;1.27;;;;;;;;;;4894604;29;20059;-76
2022/12/29 13:04:34;;;;;;;2.88;1.55;;;;;;;;;;4903343;29;20056;-76
2022/12/29 13:07:23;;;;;;;2.45;1.00;;;;;;;;;;4895800;29;20076;-76
2022/12/29 13:10:56;;;;;;;1.75;0.82;;;;;;;;;;4922920;29;20530;-76
2022/12/29 13:13:48;;;;;;;2.63;1.02;;;;;;;;;;4915947;29;20068;-76
2022/12/29 13:16:23;;;;;;;4.10;1.63;;;;;;;;;;4903559;29;20052;-79
2022/12/29 13:18:50;;;;;;;1.50;1.13;;;;;;;;;;4926379;29;20597;-74
2022/12/29 13:21:48;;;;;;;3.10;1.10;;;;;;;;;;4965130;29;20062;-81
2022/12/29 13:24:48;;;;;;;3.45;1.75;;;;;;;;;;4956247;29;20043;-81
2022/12/29 13:27:42;;;;;;;2.90;0.98;;;;;;;;;;4935076;29;20058;-80
2022/12/29 13:30:14;;;;;;;3.35;1.30;;;;;;;;;;4923153;29;20043;-81
2022/12/29 13:32:59;;;;;;;3.33;1.10;;;;;;;;;;4937629;29;20075;-81
2022/12/29 13:35:29;;;;;;;2.35;1.40;;;;;;;;;;4934073;29;20058;-81
2022/12/29 13:38:21;;;;;;;3.05;1.30;;;;;;;;;;4951883;29;20146;-81
2022/12/29 13:40:55;;;;;;;3.35;1.23;;;;;;;;;;4933750;29;20082;-81
2022/12/29 13:43:21;;;;;;;1.92;1.10;;;;;;;;;;4937441;29;20574;-80
2022/12/29 13:45:55;;;;;;;4.28;2.35;;;;;;;;;;4916478;29;20534;-78
2022/12/29 13:48:24;;;;;;;1.27;1.00;;;;;;;;;;4905415;29;20059;-77
2022/12/29 13:50:57;;;;;;;2.55;1.50;;;;;;;;;;4915372;29;20521;-80
2022/12/29 13:53:40;;;;;;;5.47;2.10;;;;;;;;;;4917760;29;20063;-81
2022/12/29 13:56:20;;;;;;;6.32;2.92;;;;;;;;;;4911599;29;20581;-80
2022/12/29 13:58:56;;;;;;;4.68;2.47;;;;;;;;;;4915420;29;20122;-80
2022/12/29 14:01:31;;;;;;;4.20;2.38;;;;;;;;;;4950306;29;20401;-78
2022/12/29 14:04:00;;;;;;;3.50;2.20;;;;;;;;;;4939246;29;20066;-78
2022/12/29 14:06:31;;;;;;;5.55;2.33;;;;;;;;;;4919534;29;20055;-78
2022/12/29 14:08:59;;;;;;;2.15;1.38;;;;;;;;;;4919500;29;20063;-79
2022/12/29 14:11:39;;;;;;;3.50;1.40;;;;;;;;;;4924666;29;20082;-78
2022/12/29 14:14:24;;;;;;;2.38;1.38;;;;;;;;;;4921583;29;20067;-79
2022/12/29 14:16:52;;;;;;;3.03;1.52;;;;;;;;;;4935040;29;20055;-78
2022/12/29 14:19:40;;;;;;;4.30;1.38;;;;;;;;;;4905712;29;20051;-77
2022/12/29 14:22:07;;;;;;;2.30;1.40;;;;;;;;;;4933909;29;20105;-79
2022/12/29 14:24:34;;;;;;;2.47;1.23;;;;;;;;;;4931839;28;20055;-77
2022/12/29 14:27:18;;;;;;;4.18;1.70;;;;;;;;;;4953895;28;20132;-78
2022/12/29 14:29:50;;;;;;;4.47;1.45;;;;;;;;;;4914852;29;20058;-77
2022/12/29 14:32:26;;;;;;;2.05;1.33;;;;;;;;;;4938832;29;20364;-77
2022/12/29 14:34:57;;;;;;;2.95;1.92;;;;;;;;;;4954306;29;20063;-74
2022/12/29 14:37:34;;;;;;;3.60;1.77;;;;;;;;;;4913549;29;20416;-73
2022/12/29 14:40:04;;;;;;;3.70;1.42;;;;;;;;;;4933400;29;20924;-74
2022/12/29 14:42:31;;;;;;;2.55;1.30;;;;;;;;;;4951434;28;20058;-74
2022/12/29 14:45:10;;;;;;;3.65;1.50;;;;;;;;;;4935133;29;20063;-73
2022/12/29 14:47:38;;;;;;;3.63;1.63;;;;;;;;;;4903491;29;20047;-73
2022/12/29 14:50:12;;;;;;;3.65;1.60;;;;;;;;;;4917621;29;20587;-74
2022/12/29 14:52:52;;;;;;;2.92;1.60;;;;;;;;;;4934657;29;20051;-74
2022/12/29 14:55:47;;;;;;;4.65;1.55;;;;;;;;;;4948600;29;20461;-73
2022/12/29 14:58:14;;;;;;;3.47;2.13;;;;;;;;;;4918973;29;20512;-74
2022/12/29 15:00:41;;;;;;;3.40;2.10;;;;;;;;;;4918557;29;20155;-73
2022/12/29 15:03:24;;;;;;;4.97;1.50;;;;;;;;;;4909731;29;20075;-76
2022/12/29 15:05:52;;;;;;;2.83;1.48;;;;;;;;;;4904381;29;20082;-75
2022/12/29 15:08:22;;;;;;;5.10;2.63;;;;;;;;;;4916277;29;20051;-82
2022/12/29 15:10:56;;;;;;;5.47;3.05;;;;;;;;;;4932598;29;20059;-80
2022/12/29 15:13:31;;;;;;;4.47;1.88;;;;;;;;;;4926245;29;20115;-81
2022/12/29 15:15:58;;;;;;;2.83;1.52;;;;;;;;;;4902701;29;20051;-83
2022/12/29 15:18:28;;;;;;;1.85;1.42;;;;;;;;;;4940144;29;20083;-82
2022/12/29 15:21:00;;;;;;;3.13;1.65;;;;;;;;;;4911482;29;20051;-81
2022/12/29 15:23:27;;;;;;;2.50;1.48;;;;;;;;;;4906770;29;20102;-82
2022/12/29 15:25:57;;;;;;;2.97;1.65;;;;;;;;;;4937449;29;20055;-81
2022/12/29 15:28:25;;;;;;;3.13;1.67;;;;;;;;;;4953251;29;20082;-82
2022/12/29 15:30:57;;;;;;;2.08;1.38;;;;;;;;;;4916535;29;20058;-81
2022/12/29 15:33:26;;;;;;;3.87;1.57;;;;;;;;;;4922200;29;20062;-82
2022/12/29 15:35:54;;;;;;;3.60;1.40;;;;;;;;;;4952476;29;20075;-81
2022/12/29 15:38:27;;;;;;;3.33;1.40;;;;;;;;;;4936620;29;20062;-81
2022/12/29 15:41:05;;;;;;;3.30;1.70;;;;;;;;;;4926155;29;20174;-81
2022/12/29 15:43:38;;;;;;;4.63;1.67;;;;;;;;;;4910997;29;20055;-81
2022/12/29 15:46:12;;;;;;;2.83;1.60;;;;;;;;;;4946956;29;20058;-81
2022/12/29 15:48:40;;;;;;;1.80;1.27;;;;;;;;;;4911814;29;20051;-80
2022/12/29 15:51:29;;;;;;;1.73;1.05;;;;;;;;;;4922548;29;20200;-83
2022/12/29 15:53:57;;;;;;;2.35;0.80;;;;;;;;;;4921315;29;20055;-81
2022/12/29 15:56:24;;;;;;;3.63;1.00;;;;;;;;;;4920947;29;20047;-81